Time;durP1;ratioP1;P1;durP2;ratioP2;P2;SDS_P1;SDS_P2;PMS_P1;PMS_P2;Temp;Humidity;BMP_temperature;BMP_pressure;BME280_temperature;BME280_humidity;BME280_pressure;Samples;Min_cycle;Max_cycle;Signal;HPM_P1;HPM_P2
2022/01/09 00:02:06;;;;;;;10.95;2.53;;;24.70;99.90;;;;;;5068559;28;20223;-77
2022/01/09 00:04:36;;;;;;;9.70;2.40;;;24.80;99.90;;;;;;5063001;28;20279;-77
2022/01/09 00:07:07;;;;;;;8.73;2.30;;;24.70;99.90;;;;;;5067834;28;20189;-77
2022/01/09 00:09:41;;;;;;;9.52;2.42;;;24.60;99.90;;;;;;5071718;28;20208;-77
2022/01/09 00:12:12;;;;;;;9.98;2.65;;;24.40;99.90;;;;;;5060453;28;20208;-77
2022/01/09 00:14:45;;;;;;;10.60;2.55;;;24.30;99.90;;;;;;5064536;28;20233;-77
2022/01/09 00:17:18;;;;;;;6.35;2.30;;;24.20;99.90;;;;;;5066925;28;20200;-78
2022/01/09 00:19:49;;;;;;;9.23;2.28;;;24.10;99.90;;;;;;5056723;28;20198;-77
2022/01/09 00:22:27;;;;;;;7.20;2.40;;;24.10;99.90;;;;;;5063886;28;20222;-77
2022/01/09 00:24:57;;;;;;;8.63;2.75;;;24.00;99.90;;;;;;5066800;28;20203;-77
2022/01/09 00:27:28;;;;;;;6.68;2.55;;;23.90;99.90;;;;;;5068676;28;20653;-77
2022/01/09 00:29:59;;;;;;;10.60;2.83;;;23.90;99.90;;;;;;5062281;28;20229;-78
2022/01/09 00:32:31;;;;;;;7.03;2.60;;;23.90;99.90;;;;;;5074313;28;20197;-78
2022/01/09 00:35:02;;;;;;;11.40;2.53;;;23.90;99.90;;;;;;5080228;28;20200;-77
2022/01/09 00:37:33;;;;;;;6.72;2.40;;;24.00;99.90;;;;;;5072637;28;20193;-77
2022/01/09 00:40:04;;;;;;;10.27;2.78;;;24.00;99.90;;;;;;5076211;28;20200;-77
2022/01/09 00:42:34;;;;;;;10.65;2.63;;;24.10;99.90;;;;;;5063157;28;20242;-77
2022/01/09 00:45:06;;;;;;;8.98;2.33;;;24.10;99.90;;;;;;5066676;28;20206;-78
2022/01/09 00:47:39;;;;;;;8.93;2.53;;;24.30;99.90;;;;;;5064390;28;20205;-77
2022/01/09 00:50:12;;;;;;;10.10;2.22;;;24.40;99.90;;;;;;5078635;28;20334;-76
2022/01/09 00:52:43;;;;;;;7.60;2.60;;;24.40;99.90;;;;;;5072846;28;20201;-77
2022/01/09 00:55:14;;;;;;;8.77;2.60;;;24.40;99.90;;;;;;5073720;28;20220;-77
2022/01/09 00:57:45;;;;;;;8.73;2.63;;;24.40;99.90;;;;;;5070538;28;20197;-77
2022/01/09 01:00:17;;;;;;;7.35;2.50;;;24.40;99.90;;;;;;5074205;28;20612;-78
2022/01/09 01:02:49;;;;;;;7.60;2.85;;;24.40;99.90;;;;;;5058121;28;20347;-78
2022/01/09 01:05:20;;;;;;;11.95;2.70;;;24.40;99.90;;;;;;5066843;28;20246;-79
2022/01/09 01:07:51;;;;;;;10.80;2.47;;;24.50;99.90;;;;;;5071040;28;20201;-77
2022/01/09 01:10:22;;;;;;;9.52;2.40;;;24.50;99.90;;;;;;5072336;28;20197;-78
2022/01/09 01:12:52;;;;;;;8.63;2.55;;;24.60;99.90;;;;;;5069351;28;20664;-79
2022/01/09 01:15:23;;;;;;;7.43;2.20;;;24.50;99.90;;;;;;5069322;28;20588;-79
2022/01/09 01:17:55;;;;;;;9.32;2.35;;;24.60;99.90;;;;;;5089817;28;20212;-78
2022/01/09 01:20:27;;;;;;;8.80;2.92;;;24.50;99.90;;;;;;5087881;28;20188;-78
2022/01/09 01:22:58;;;;;;;10.73;2.60;;;24.50;99.90;;;;;;5059598;28;20216;-78
2022/01/09 01:25:34;;;;;;;7.68;2.35;;;24.40;99.90;;;;;;5066617;28;20204;-79
2022/01/09 01:28:06;;;;;;;7.00;2.22;;;24.50;99.90;;;;;;5074935;28;20596;-79
2022/01/09 01:30:38;;;;;;;11.05;2.78;;;24.50;99.90;;;;;;5093419;28;20207;-79
2022/01/09 01:33:14;;;;;;;7.88;2.50;;;24.40;99.90;;;;;;5073048;28;20201;-78
2022/01/09 01:35:44;;;;;;;6.75;2.30;;;24.30;99.90;;;;;;5072230;28;20204;-80
2022/01/09 01:38:18;;;;;;;9.25;2.63;;;24.20;99.90;;;;;;5073662;28;20201;-79
2022/01/09 01:40:49;;;;;;;12.50;2.60;;;24.10;99.90;;;;;;5071047;28;20189;-79
2022/01/09 01:43:19;;;;;;;8.23;2.40;;;24.10;99.90;;;;;;5062766;28;20236;-78
2022/01/09 01:45:50;;;;;;;8.00;2.53;;;24.10;99.90;;;;;;5057463;28;20209;-79
2022/01/09 01:48:22;;;;;;;11.30;3.15;;;24.10;99.90;;;;;;5057668;28;20189;-77
2022/01/09 01:50:53;;;;;;;10.90;2.63;;;24.00;99.90;;;;;;5074131;28;20188;-79
2022/01/09 01:53:25;;;;;;;10.52;2.70;;;24.00;99.90;;;;;;5079018;28;20254;-79
2022/01/09 01:55:57;;;;;;;11.05;2.90;;;24.00;99.90;;;;;;5069262;28;20224;-79
2022/01/09 01:58:31;;;;;;;7.05;2.65;;;23.90;99.90;;;;;;5067571;28;20661;-79
2022/01/09 02:01:01;;;;;;;8.98;2.97;;;23.90;99.90;;;;;;5054844;28;20220;-80
2022/01/09 02:03:34;;;;;;;9.98;3.00;;;23.90;99.90;;;;;;5063544;28;20213;-80
2022/01/09 02:06:05;;;;;;;9.55;3.00;;;23.90;99.90;;;;;;5077027;28;20679;-78
2022/01/09 02:08:35;;;;;;;11.68;3.30;;;23.80;99.90;;;;;;5080005;28;20247;-78
2022/01/09 02:11:06;;;;;;;11.98;2.95;;;23.90;99.90;;;;;;5054931;28;20190;-77
2022/01/09 02:13:39;;;;;;;9.80;2.90;;;23.90;99.90;;;;;;5070812;28;20232;-78
2022/01/09 02:16:16;;;;;;;7.18;2.67;;;23.90;99.90;;;;;;5065445;28;20286;-80
2022/01/09 02:18:49;;;;;;;9.48;3.03;;;23.90;99.90;;;;;;5074619;28;20196;-80
2022/01/09 02:21:26;;;;;;;11.95;3.40;;;23.80;99.90;;;;;;5064887;28;20196;-80
2022/01/09 02:23:56;;;;;;;8.30;3.50;;;23.90;99.90;;;;;;5078906;28;20215;-78
2022/01/09 02:26:27;;;;;;;7.97;3.05;;;23.90;99.90;;;;;;5072713;28;20645;-78
2022/01/09 02:28:58;;;;;;;9.73;3.20;;;23.90;99.90;;;;;;5083026;28;20644;-78
2022/01/09 02:31:28;;;;;;;12.70;3.58;;;23.80;99.90;;;;;;5086904;28;20188;-78
2022/01/09 02:33:59;;;;;;;13.73;3.80;;;23.70;99.90;;;;;;5069950;28;20738;-78
2022/01/09 02:36:31;;;;;;;11.65;3.58;;;23.70;99.90;;;;;;5072681;28;20193;-79
2022/01/09 02:39:02;;;;;;;9.48;3.50;;;23.80;99.90;;;;;;5073747;28;20547;-78
2022/01/09 02:41:33;;;;;;;11.32;3.72;;;23.80;99.90;;;;;;5073198;28;20660;-78
2022/01/09 02:44:11;;;;;;;13.10;4.05;;;23.80;99.90;;;;;;5090923;28;20236;-78
2022/01/09 02:46:55;;;;;;;9.23;3.47;;;23.80;99.90;;;;;;5064075;28;20205;-78
2022/01/09 02:49:27;;;;;;;13.35;4.00;;;23.70;99.90;;;;;;5065157;28;20200;-78
2022/01/09 02:52:05;;;;;;;11.57;3.30;;;23.70;99.90;;;;;;5073744;28;20193;-78
2022/01/09 02:57:23;;;;;;;10.25;3.70;;;23.70;99.90;;;;;;5064500;28;20191;-77
2022/01/09 02:59:53;;;;;;;12.38;3.90;;;23.70;99.90;;;;;;5057621;28;20197;-78
2022/01/09 03:02:25;;;;;;;11.02;3.92;;;23.70;99.90;;;;;;5065425;28;20197;-77
2022/01/09 03:04:55;;;;;;;8.35;3.78;;;23.70;99.90;;;;;;5069008;28;22439;-78
2022/01/09 03:07:28;;;;;;;12.43;4.10;;;23.70;99.90;;;;;;5067407;28;20584;-78
2022/01/09 03:09:59;;;;;;;9.02;3.80;;;23.80;99.90;;;;;;5070954;28;20660;-78
2022/01/09 03:12:29;;;;;;;12.65;4.72;;;23.80;99.90;;;;;;5069251;28;20668;-77
2022/01/09 03:15:00;;;;;;;13.63;3.95;;;23.90;99.90;;;;;;5069886;28;20224;-78
2022/01/09 03:17:31;;;;;;;12.32;3.67;;;23.90;99.90;;;;;;5052932;28;20212;-78
2022/01/09 03:20:01;;;;;;;8.68;3.58;;;24.00;99.90;;;;;;5057145;28;20209;-77
2022/01/09 03:22:34;;;;;;;12.38;2.95;;;24.10;99.90;;;;;;5083067;28;20196;-77
2022/01/09 03:25:05;;;;;;;7.75;2.78;;;24.20;99.90;;;;;;5060698;28;20205;-77
2022/01/09 03:27:35;;;;;;;12.20;3.33;;;24.20;99.90;;;;;;5084884;28;20223;-77
2022/01/09 03:30:07;;;;;;;9.57;3.15;;;24.20;99.90;;;;;;5060544;28;20200;-78
2022/01/09 03:32:39;;;;;;;8.18;3.03;;;24.20;99.90;;;;;;5063046;28;20197;-77
2022/01/09 03:35:12;;;;;;;14.73;3.40;;;24.10;99.90;;;;;;5062905;28;20197;-78
2022/01/09 03:37:47;;;;;;;8.88;3.70;;;24.10;99.90;;;;;;5073275;28;20522;-77
2022/01/09 03:40:19;;;;;;;9.20;3.13;;;24.20;99.90;;;;;;5076854;28;20195;-77
2022/01/09 03:42:51;;;;;;;13.77;4.38;;;24.20;99.90;;;;;;5076632;28;20213;-77
2022/01/09 03:45:22;;;;;;;10.95;3.28;;;24.20;99.90;;;;;;5073358;28;20201;-78
2022/01/09 03:47:53;;;;;;;9.48;3.47;;;24.20;99.90;;;;;;5075748;28;20192;-77
2022/01/09 03:50:24;;;;;;;8.88;3.30;;;24.20;99.90;;;;;;5053267;28;20201;-78
2022/01/09 03:52:56;;;;;;;9.15;3.58;;;24.20;99.90;;;;;;5052883;28;20215;-78
2022/01/09 03:55:27;;;;;;;12.35;3.50;;;24.30;99.90;;;;;;5059441;28;20239;-78
2022/01/09 03:57:58;;;;;;;9.25;3.53;;;24.40;99.90;;;;;;5073421;28;20200;-77
2022/01/09 04:00:29;;;;;;;5.80;2.90;;;24.40;99.90;;;;;;5076872;28;20227;-77
2022/01/09 04:02:59;;;;;;;8.00;2.85;;;24.40;99.90;;;;;;5075525;28;20692;-79
2022/01/09 04:05:30;;;;;;;10.15;2.70;;;24.40;99.90;;;;;;5074471;28;20235;-79
2022/01/09 04:08:06;;;;;;;12.02;3.10;;;24.40;99.90;;;;;;5073883;28;20200;-77
2022/01/09 04:10:40;;;;;;;6.70;2.70;;;24.50;99.90;;;;;;5079116;28;20188;-77
2022/01/09 04:13:13;;;;;;;8.82;3.20;;;24.50;99.90;;;;;;5087427;28;20193;-77
2022/01/09 04:15:47;;;;;;;10.25;3.13;;;24.50;99.90;;;;;;5077894;28;20185;-79
2022/01/09 04:18:19;;;;;;;9.93;3.03;;;24.60;99.90;;;;;;5086081;28;20189;-78
2022/01/09 04:20:51;;;;;;;5.90;2.40;;;24.60;99.90;;;;;;5090955;28;20545;-77
2022/01/09 04:23:23;;;;;;;6.28;2.55;;;24.60;99.90;;;;;;5096872;28;20219;-78
2022/01/09 04:25:54;;;;;;;13.30;2.40;;;24.60;99.90;;;;;;5096888;28;20196;-78
2022/01/09 04:28:25;;;;;;;6.53;2.25;;;24.70;99.90;;;;;;5080184;28;20196;-78
2022/01/09 04:30:56;;;;;;;6.00;2.30;;;24.60;99.90;;;;;;5076630;28;20200;-78
2022/01/09 04:33:27;;;;;;;6.18;2.03;;;24.70;99.90;;;;;;5076359;28;20195;-78
2022/01/09 04:35:58;;;;;;;9.27;2.30;;;24.70;99.90;;;;;;5076389;28;20224;-78
2022/01/09 04:38:30;;;;;;;9.57;2.50;;;24.70;99.90;;;;;;5076328;28;20251;-77
2022/01/09 04:41:01;;;;;;;6.45;2.30;;;24.70;99.90;;;;;;5076749;28;20631;-80
2022/01/09 04:43:32;;;;;;;7.38;2.20;;;24.80;99.90;;;;;;5056608;28;20232;-77
2022/01/09 04:46:02;;;;;;;10.13;2.13;;;24.90;99.90;;;;;;5069108;28;20200;-78
2022/01/09 04:48:34;;;;;;;7.20;2.13;;;24.90;99.90;;;;;;5069532;28;20192;-79
2022/01/09 04:51:05;;;;;;;7.50;2.08;;;24.90;99.90;;;;;;5060278;28;20198;-78
2022/01/09 04:53:37;;;;;;;5.25;2.05;;;24.90;99.90;;;;;;5065392;28;20202;-78
2022/01/09 04:56:08;;;;;;;6.22;2.03;;;24.90;99.90;;;;;;5062613;28;20693;-78
2022/01/09 04:58:39;;;;;;;6.18;2.03;;;25.00;99.90;;;;;;5062334;28;20206;-78
2022/01/09 05:01:10;;;;;;;5.13;1.63;;;25.00;99.90;;;;;;5069934;28;20205;-78
2022/01/09 05:03:40;;;;;;;8.30;1.98;;;24.90;99.90;;;;;;5055799;28;20210;-79
2022/01/09 05:06:18;;;;;;;9.15;2.03;;;25.00;99.90;;;;;;5064518;28;20208;-79
2022/01/09 05:08:53;;;;;;;5.70;1.90;;;24.90;99.90;;;;;;5056738;28;20233;-79
2022/01/09 05:11:23;;;;;;;6.28;1.88;;;24.90;99.90;;;;;;5082915;28;20208;-79
2022/01/09 05:13:54;;;;;;;6.60;2.17;;;24.80;99.90;;;;;;5055392;28;20241;-81
2022/01/09 06:03:36;;;;;;;8.82;2.00;;;24.60;99.90;;;;;;5050154;28;20274;-78
2022/01/09 06:06:54;;;;;;;6.20;2.83;;;24.50;99.90;;;;;;5066254;28;20243;-79
2022/01/09 06:22:55;;;;;;;5.97;2.10;;;24.50;99.90;;;;;;5061190;28;20239;-79
2022/01/09 06:25:25;;;;;;;5.10;1.75;;;24.50;99.90;;;;;;5057872;28;20625;-81
2022/01/09 06:27:56;;;;;;;7.55;1.77;;;24.50;99.90;;;;;;5069194;28;20201;-81
2022/01/09 06:30:27;;;;;;;5.78;2.03;;;24.50;99.90;;;;;;5070843;28;20688;-80
2022/01/09 06:32:58;;;;;;;9.27;2.15;;;24.50;99.90;;;;;;5054105;28;20198;-78
2022/01/09 06:35:28;;;;;;;5.28;1.98;;;24.50;99.90;;;;;;5053939;28;20210;-78
2022/01/09 06:38:01;;;;;;;6.32;2.00;;;24.50;99.90;;;;;;5082659;28;20189;-77
2022/01/09 06:40:32;;;;;;;4.82;1.90;;;24.50;99.90;;;;;;5057928;28;20712;-80
2022/01/09 06:43:06;;;;;;;7.75;2.20;;;24.50;99.90;;;;;;5064345;28;20197;-79
2022/01/09 06:45:39;;;;;;;6.28;2.20;;;24.50;99.90;;;;;;5073110;28;20664;-79
2022/01/09 06:48:09;;;;;;;7.72;1.85;;;24.50;99.90;;;;;;5071660;28;20205;-79
2022/01/09 06:50:40;;;;;;;6.18;2.13;;;24.50;99.90;;;;;;5066699;28;20189;-79
2022/01/09 06:53:12;;;;;;;6.82;2.53;;;24.60;99.90;;;;;;5076002;28;20547;-79
2022/01/09 06:55:44;;;;;;;7.88;1.80;;;24.60;99.90;;;;;;5073876;28;20220;-78
2022/01/09 06:58:18;;;;;;;6.93;2.00;;;24.60;99.90;;;;;;5055206;28;20799;-78
2022/01/09 07:00:49;;;;;;;8.93;1.95;;;24.60;99.90;;;;;;5069869;28;20204;-78
2022/01/09 07:03:20;;;;;;;7.30;1.90;;;24.60;99.90;;;;;;5071207;28;20192;-78
2022/01/09 07:05:51;;;;;;;6.97;1.85;;;24.50;99.90;;;;;;5075407;28;20667;-79
2022/01/09 07:08:24;;;;;;;6.00;2.03;;;24.50;99.90;;;;;;5070259;28;20250;-79
2022/01/09 07:10:54;;;;;;;7.22;1.90;;;24.50;99.90;;;;;;5060001;28;20209;-79
2022/01/09 07:13:25;;;;;;;7.57;1.85;;;24.40;99.90;;;;;;5074288;28;20205;-79
2022/01/09 07:15:56;;;;;;;5.10;1.85;;;24.30;99.90;;;;;;5081564;28;20630;-79
2022/01/09 07:18:26;;;;;;;7.32;2.25;;;24.30;99.90;;;;;;5054546;28;20212;-80
2022/01/09 07:20:57;;;;;;;6.40;2.35;;;24.30;99.90;;;;;;5054165;28;20237;-79
2022/01/09 07:23:30;;;;;;;5.78;2.20;;;24.30;99.90;;;;;;5079967;28;20196;-81
2022/01/09 07:26:00;;;;;;;6.82;2.10;;;24.30;99.90;;;;;;5075654;28;20203;-80
2022/01/09 07:28:34;;;;;;;5.32;2.10;;;24.20;99.90;;;;;;5080748;28;20200;-79
2022/01/09 07:31:04;;;;;;;6.72;1.80;;;24.20;99.90;;;;;;5064960;28;20213;-79
2022/01/09 07:33:35;;;;;;;8.27;2.05;;;24.20;99.90;;;;;;5064768;28;20232;-79
2022/01/09 07:36:06;;;;;;;10.50;2.63;;;24.20;99.90;;;;;;5066818;28;20205;-80
2022/01/09 07:38:38;;;;;;;5.50;2.20;;;24.20;99.90;;;;;;5067683;28;20197;-77
2022/01/09 07:41:12;;;;;;;6.70;1.80;;;24.20;99.90;;;;;;5060607;28;20201;-79
2022/01/09 07:43:43;;;;;;;9.10;2.05;;;24.10;99.90;;;;;;5077121;28;20200;-77
2022/01/09 07:46:14;;;;;;;8.88;2.35;;;24.10;99.90;;;;;;5057763;28;20198;-78
2022/01/09 07:48:45;;;;;;;7.53;2.00;;;24.10;99.90;;;;;;5076522;28;20202;-78
2022/01/09 07:51:16;;;;;;;7.50;2.20;;;24.10;99.90;;;;;;5069329;28;20197;-76
2022/01/09 07:53:48;;;;;;;6.13;2.20;;;24.10;99.90;;;;;;5061373;28;20204;-77
2022/01/09 07:56:19;;;;;;;5.97;2.50;;;24.10;99.90;;;;;;5056064;28;20197;-77
2022/01/09 07:58:50;;;;;;;8.35;2.10;;;24.10;99.90;;;;;;5068513;28;20653;-77
2022/01/09 08:01:21;;;;;;;8.40;2.20;;;24.10;99.90;;;;;;5058214;28;20203;-78
2022/01/09 08:03:51;;;;;;;9.32;2.28;;;24.00;99.90;;;;;;5075291;28;20675;-78
2022/01/09 08:06:22;;;;;;;7.80;2.53;;;24.00;99.90;;;;;;5063970;28;20203;-77
2022/01/09 08:08:54;;;;;;;8.63;2.60;;;24.00;99.90;;;;;;5066591;28;20201;-78
2022/01/09 08:11:25;;;;;;;10.38;2.42;;;24.00;99.90;;;;;;5067771;28;20562;-77
2022/01/09 08:13:56;;;;;;;7.15;2.50;;;24.00;99.90;;;;;;5063349;28;20241;-78
2022/01/09 08:16:26;;;;;;;8.98;2.10;;;24.00;99.90;;;;;;5062422;28;20597;-79
2022/01/09 08:18:59;;;;;;;10.05;2.75;;;24.00;99.90;;;;;;5062276;28;20205;-80
2022/01/09 08:21:30;;;;;;;11.45;2.75;;;24.00;99.90;;;;;;5056662;28;20193;-80
2022/01/09 08:24:02;;;;;;;9.52;2.75;;;23.90;99.90;;;;;;5061938;28;20220;-79
2022/01/09 08:26:34;;;;;;;10.85;2.60;;;23.90;99.90;;;;;;5064169;28;20572;-80
2022/01/09 08:29:04;;;;;;;10.50;2.45;;;23.90;99.90;;;;;;5060328;28;20658;-78
2022/01/09 08:31:35;;;;;;;9.63;2.40;;;23.80;99.90;;;;;;5059988;28;20205;-80
2022/01/09 08:34:06;;;;;;;8.45;3.10;;;23.70;99.90;;;;;;5055800;28;20252;-79
2022/01/09 08:36:37;;;;;;;7.68;2.92;;;23.70;99.90;;;;;;5058121;28;20189;-78
2022/01/09 08:39:10;;;;;;;7.97;3.15;;;23.70;99.90;;;;;;5058477;28;20197;-78
2022/01/09 08:41:41;;;;;;;9.25;2.33;;;23.70;99.90;;;;;;5061038;28;20193;-78
2022/01/09 08:44:12;;;;;;;9.82;2.83;;;23.70;99.90;;;;;;5055860;28;20685;-78
2022/01/09 08:46:43;;;;;;;11.00;2.70;;;23.60;99.90;;;;;;5059226;28;20201;-79
2022/01/09 08:49:13;;;;;;;7.25;2.55;;;23.60;99.90;;;;;;5053992;28;20201;-78
2022/01/09 08:51:44;;;;;;;9.18;2.47;;;23.60;99.90;;;;;;5061427;28;20197;-80
2022/01/09 08:54:17;;;;;;;6.90;2.70;;;23.60;99.90;;;;;;5059055;28;20229;-79
2022/01/09 08:56:48;;;;;;;9.38;2.30;;;23.60;99.90;;;;;;5064457;28;20199;-79
2022/01/09 08:59:19;;;;;;;7.18;2.20;;;23.60;99.90;;;;;;5060454;28;20193;-78
2022/01/09 09:01:51;;;;;;;6.40;2.00;;;23.50;99.90;;;;;;5057605;28;20680;-79
2022/01/09 09:04:21;;;;;;;9.40;2.33;;;23.50;99.90;;;;;;5063804;28;20585;-79
2022/01/09 09:06:52;;;;;;;10.02;2.33;;;23.40;99.90;;;;;;5062774;28;20201;-79
2022/01/09 09:09:25;;;;;;;11.32;2.28;;;23.40;99.90;;;;;;5056306;28;20194;-78
2022/01/09 09:11:55;;;;;;;6.78;2.33;;;23.40;99.90;;;;;;5058693;28;20203;-79
2022/01/09 09:14:26;;;;;;;7.22;2.30;;;23.40;99.90;;;;;;5063330;28;20248;-78
2022/01/09 09:16:59;;;;;;;8.32;2.35;;;23.40;99.90;;;;;;5064512;28;20212;-77
2022/01/09 09:19:30;;;;;;;8.32;2.92;;;23.30;99.90;;;;;;5055647;28;20216;-77
2022/01/09 09:22:00;;;;;;;9.38;2.45;;;23.30;99.90;;;;;;5062557;28;20201;-77
2022/01/09 09:24:33;;;;;;;9.32;2.78;;;23.40;99.90;;;;;;5055486;28;20209;-78
2022/01/09 09:27:04;;;;;;;6.70;2.17;;;23.40;99.90;;;;;;5063321;28;20197;-78
2022/01/09 09:29:35;;;;;;;9.93;2.40;;;23.40;99.90;;;;;;5055484;28;20657;-80
2022/01/09 09:32:05;;;;;;;7.22;2.30;;;23.40;99.90;;;;;;5065330;28;20213;-79
2022/01/09 09:34:38;;;;;;;13.00;2.70;;;23.30;99.90;;;;;;5067662;28;20201;-80
2022/01/09 09:37:09;;;;;;;7.38;2.25;;;23.30;99.90;;;;;;5058390;28;20622;-79
2022/01/09 09:39:42;;;;;;;9.63;2.60;;;23.30;99.90;;;;;;5055395;28;20201;-78
2022/01/09 09:42:13;;;;;;;11.70;2.72;;;23.30;99.90;;;;;;5064367;28;20255;-79
2022/01/09 09:44:44;;;;;;;8.05;3.53;;;23.30;99.90;;;;;;5080706;28;20307;-80
2022/01/09 09:47:14;;;;;;;11.70;5.43;;;23.30;99.90;;;;;;5059689;28;20597;-79
2022/01/09 09:49:45;;;;;;;9.77;3.40;;;23.20;99.90;;;;;;5077460;28;20197;-80
2022/01/09 09:52:18;;;;;;;11.57;7.40;;;23.20;99.90;;;;;;5071730;28;20189;-79
2022/01/09 09:54:52;;;;;;;16.08;10.45;;;23.20;99.90;;;;;;5061990;28;20244;-80
2022/01/09 09:57:23;;;;;;;14.43;7.78;;;23.20;99.90;;;;;;5065886;28;20200;-79
2022/01/09 10:00:03;;;;;;;10.13;5.85;;;23.20;99.90;;;;;;5066770;28;20205;-78
2022/01/09 10:02:47;;;;;;;16.40;9.70;;;23.20;99.90;;;;;;5071554;28;20254;-79
2022/01/09 10:05:20;;;;;;;19.20;11.32;;;23.20;99.90;;;;;;5068956;28;20217;-79
2022/01/09 10:07:50;;;;;;;14.73;9.45;;;23.10;99.90;;;;;;5058999;28;20654;-79
2022/01/09 10:10:31;;;;;;;15.20;9.73;;;23.10;99.90;;;;;;5072294;28;20193;-79
2022/01/09 10:13:09;;;;;;;19.05;10.15;;;23.10;99.90;;;;;;5070824;28;20637;-79
2022/01/09 10:15:59;;;;;;;18.65;8.10;;;23.10;99.90;;;;;;5065867;28;20675;-80
2022/01/09 10:18:44;;;;;;;11.13;5.75;;;23.20;99.90;;;;;;5072520;28;20275;-79
2022/01/09 10:21:16;;;;;;;11.80;4.90;;;23.20;99.90;;;;;;5060179;28;20204;-79
2022/01/09 10:24:04;;;;;;;10.80;5.25;;;23.20;99.90;;;;;;5071815;28;20197;-79
2022/01/09 10:26:39;;;;;;;16.20;7.70;;;23.20;99.90;;;;;;5062535;28;20212;-78
2022/01/09 10:29:13;;;;;;;12.93;5.50;;;23.10;99.90;;;;;;5063051;28;20687;-78
2022/01/09 10:31:49;;;;;;;12.05;5.10;;;23.10;99.90;;;;;;5067689;28;20197;-80
2022/01/09 10:34:19;;;;;;;12.00;5.50;;;23.10;99.90;;;;;;5061878;28;20669;-80
2022/01/09 10:36:51;;;;;;;8.95;3.80;;;23.10;99.90;;;;;;5067551;28;20203;-80
2022/01/09 10:39:30;;;;;;;11.15;5.00;;;23.10;99.90;;;;;;5084117;28;20211;-79
2022/01/09 10:42:04;;;;;;;16.75;4.28;;;23.10;99.90;;;;;;5068280;28;20246;-80
2022/01/09 10:44:37;;;;;;;12.35;4.20;;;23.10;99.90;;;;;;5076197;28;20204;-80
2022/01/09 10:47:10;;;;;;;12.60;7.05;;;23.10;99.90;;;;;;5078820;28;20223;-79
2022/01/09 10:49:43;;;;;;;13.05;6.13;;;23.10;99.90;;;;;;5082626;28;20542;-79
2022/01/09 10:52:22;;;;;;;10.20;4.90;;;23.10;99.90;;;;;;5053735;28;20230;-79
2022/01/09 10:54:54;;;;;;;15.30;5.10;;;23.10;99.90;;;;;;5071963;28;20321;-80
2022/01/09 10:57:27;;;;;;;11.80;3.72;;;23.00;99.90;;;;;;5072131;28;20258;-80
2022/01/09 11:00:08;;;;;;;9.82;3.33;;;23.10;99.90;;;;;;5054079;28;20204;-80
2022/01/09 11:02:39;;;;;;;9.35;4.10;;;23.10;99.90;;;;;;5059643;28;20972;-81
2022/01/09 11:05:10;;;;;;;11.82;3.25;;;23.00;99.90;;;;;;5077075;28;20233;-81
2022/01/09 11:07:42;;;;;;;11.80;4.35;;;23.10;99.90;;;;;;5058879;28;20201;-80
2022/01/09 11:10:16;;;;;;;11.05;4.05;;;23.10;99.90;;;;;;5068549;28;20202;-80
2022/01/09 11:12:50;;;;;;;12.05;4.03;;;23.10;99.90;;;;;;5064491;28;20227;-79
2022/01/09 11:15:22;;;;;;;12.65;4.00;;;23.00;99.90;;;;;;5056217;28;20244;-81
2022/01/09 11:17:54;;;;;;;10.55;4.35;;;23.10;99.90;;;;;;5067859;28;20660;-81
2022/01/09 11:20:25;;;;;;;14.27;4.43;;;23.00;99.90;;;;;;5053535;28;20579;-80
2022/01/09 11:23:00;;;;;;;11.48;3.58;;;23.10;99.90;;;;;;5067503;28;20189;-80
2022/01/09 11:25:38;;;;;;;13.55;4.15;;;23.00;99.90;;;;;;5078497;28;20736;-80
2022/01/09 11:28:15;;;;;;;13.30;5.10;;;23.00;99.90;;;;;;5084039;28;20200;-80
2022/01/09 11:31:02;;;;;;;11.02;3.42;;;23.10;99.90;;;;;;5063925;28;20193;-80
2022/01/09 11:33:48;;;;;;;10.35;3.83;;;23.10;99.90;;;;;;5076333;28;20360;-79
2022/01/09 11:36:26;;;;;;;8.32;3.60;;;23.10;99.90;;;;;;5067745;28;20692;-79
2022/01/09 11:39:11;;;;;;;10.02;2.97;;;23.10;99.90;;;;;;5052777;28;20193;-80
2022/01/09 11:41:42;;;;;;;13.00;3.13;;;23.10;99.90;;;;;;5058871;28;20247;-80
2022/01/09 11:44:22;;;;;;;11.27;3.60;;;23.00;99.90;;;;;;5064236;28;21496;-79
2022/01/09 11:47:01;;;;;;;9.63;3.50;;;23.00;99.90;;;;;;5074494;28;20212;-79
2022/01/09 11:49:34;;;;;;;14.45;4.13;;;23.00;99.90;;;;;;5071553;28;20197;-80
2022/01/09 11:52:05;;;;;;;10.18;3.42;;;22.90;99.90;;;;;;5078172;28;20211;-79
2022/01/09 11:54:51;;;;;;;8.38;3.40;;;22.90;99.90;;;;;;5064746;28;20700;-80
2022/01/09 11:57:40;;;;;;;11.80;5.03;;;22.90;99.90;;;;;;5065266;28;20201;-80
2022/01/09 12:00:31;;;;;;;15.25;6.72;;;22.90;99.90;;;;;;5067179;28;20196;-79
2022/01/09 12:03:02;;;;;;;15.23;5.88;;;23.00;99.90;;;;;;5061087;28;20276;-81
2022/01/09 12:05:53;;;;;;;12.23;4.90;;;22.90;99.90;;;;;;5072207;28;20221;-80
2022/01/09 12:08:24;;;;;;;14.57;4.28;;;22.90;99.90;;;;;;5076794;28;20197;-80
2022/01/09 12:10:56;;;;;;;11.82;4.43;;;22.90;99.90;;;;;;5074415;28;20197;-80
2022/01/09 12:13:47;;;;;;;13.00;3.78;;;22.90;99.90;;;;;;5088524;28;20246;-80
2022/01/09 12:16:50;;;;;;;9.18;3.38;;;22.90;99.90;;;;;;5072923;28;20295;-80
2022/01/09 12:19:52;;;;;;;12.13;3.70;;;22.90;99.90;;;;;;5072589;28;20196;-81
2022/01/09 12:23:00;;;;;;;11.85;3.75;;;22.90;99.90;;;;;;5077198;28;20196;-81
2022/01/09 12:25:45;;;;;;;13.60;3.75;;;22.90;99.90;;;;;;5067876;28;20259;-81
2022/01/09 12:28:18;;;;;;;13.02;4.55;;;22.90;99.90;;;;;;5063200;28;20193;-81
2022/01/09 12:30:52;;;;;;;13.30;4.30;;;22.90;99.90;;;;;;5060833;28;20648;-81
2022/01/09 12:33:51;;;;;;;8.30;4.10;;;22.90;99.90;;;;;;5072219;28;20295;-81
2022/01/09 12:36:27;;;;;;;10.68;3.70;;;22.90;99.90;;;;;;5073207;28;20215;-80
2022/01/09 12:39:02;;;;;;;10.98;4.47;;;22.90;99.90;;;;;;5086684;28;20196;-81
2022/01/09 12:41:42;;;;;;;22.58;8.82;;;22.90;99.90;;;;;;5082802;28;20651;-81
2022/01/09 12:44:15;;;;;;;35.25;19.58;;;23.00;99.90;;;;;;5070503;28;20234;-80
2022/01/09 12:46:46;;;;;;;30.13;17.63;;;22.90;99.90;;;;;;5075717;28;20300;-81
2022/01/09 12:49:22;;;;;;;28.15;15.57;;;22.90;99.90;;;;;;5076642;28;20213;-81
2022/01/09 12:52:00;;;;;;;20.10;9.40;;;22.90;99.90;;;;;;5081623;28;20258;-80
2022/01/09 12:54:30;;;;;;;17.95;7.00;;;22.90;99.90;;;;;;5072429;28;20212;-80
2022/01/09 12:57:04;;;;;;;15.93;5.75;;;22.90;99.90;;;;;;5061299;28;20205;-80
2022/01/09 12:59:35;;;;;;;12.73;4.20;;;23.00;99.90;;;;;;5072781;28;20284;-81
2022/01/09 13:02:12;;;;;;;12.52;4.53;;;22.90;99.90;;;;;;5071145;28;20656;-81
2022/01/09 13:04:56;;;;;;;10.35;4.10;;;22.90;99.90;;;;;;5056101;28;20204;-81
2022/01/09 13:07:32;;;;;;;11.50;4.22;;;23.00;99.90;;;;;;5065212;28;20259;-81
2022/01/09 13:10:15;;;;;;;13.52;4.22;;;23.00;99.90;;;;;;5084653;28;20279;-80
2022/01/09 13:13:07;;;;;;;14.43;4.78;;;23.00;99.90;;;;;;5069966;28;20284;-79
2022/01/09 13:15:39;;;;;;;7.43;4.10;;;23.00;99.90;;;;;;5076941;28;20603;-79
2022/01/09 13:18:18;;;;;;;13.32;3.95;;;23.00;99.90;;;;;;5083889;28;20196;-79
2022/01/09 13:20:52;;;;;;;12.75;3.80;;;23.00;99.90;;;;;;5059372;28;20288;-80
2022/01/09 13:23:23;;;;;;;9.85;4.00;;;23.00;99.90;;;;;;5055294;28;20205;-79
2022/01/09 13:25:55;;;;;;;15.65;3.90;;;23.00;99.90;;;;;;5055302;28;20573;-80
2022/01/09 13:28:31;;;;;;;12.13;3.80;;;23.00;99.90;;;;;;5070260;28;20566;-80
2022/01/09 13:31:03;;;;;;;13.23;3.85;;;23.00;99.90;;;;;;5068806;28;20200;-79
2022/01/09 13:33:34;;;;;;;8.77;3.63;;;23.00;99.90;;;;;;5064931;28;20232;-79
2022/01/09 13:36:08;;;;;;;28.02;10.02;;;23.00;99.90;;;;;;5055152;28;20570;-79
2022/01/09 13:38:40;;;;;;;19.83;7.70;;;23.00;99.90;;;;;;5082717;28;20197;-80
2022/01/09 13:41:13;;;;;;;18.92;7.70;;;23.00;99.90;;;;;;5072518;28;20193;-79
2022/01/09 13:43:44;;;;;;;18.90;6.63;;;23.00;99.90;;;;;;5072522;28;20201;-79
2022/01/09 13:46:15;;;;;;;14.63;4.80;;;23.00;99.90;;;;;;5069074;28;20576;-79
2022/01/09 13:48:50;;;;;;;10.20;4.03;;;23.00;99.90;;;;;;5071756;28;20200;-79
2022/01/09 13:51:47;;;;;;;14.90;4.82;;;23.00;99.90;;;;;;5054769;28;20195;-79
2022/01/09 13:54:21;;;;;;;11.75;5.00;;;23.00;99.90;;;;;;5054833;28;20708;-79
2022/01/09 13:57:09;;;;;;;10.07;3.92;;;23.00;99.90;;;;;;5071201;28;20200;-79
2022/01/09 13:59:48;;;;;;;10.05;4.20;;;23.00;99.90;;;;;;5068583;28;20281;-79
2022/01/09 14:02:20;;;;;;;17.42;4.80;;;22.90;99.90;;;;;;5070868;28;20209;-80
2022/01/09 14:05:12;;;;;;;8.93;3.47;;;22.90;99.90;;;;;;5074298;28;20196;-80
2022/01/09 14:07:48;;;;;;;8.88;3.83;;;22.90;99.90;;;;;;5071205;28;20231;-80
2022/01/09 14:10:20;;;;;;;12.77;4.53;;;22.90;99.90;;;;;;5074028;28;20204;-80
2022/01/09 14:12:51;;;;;;;15.75;5.07;;;22.90;99.90;;;;;;5061525;28;20593;-79
2022/01/09 14:15:23;;;;;;;18.90;10.38;;;22.80;99.90;;;;;;5073363;28;20237;-80
2022/01/09 14:17:58;;;;;;;43.67;28.95;;;22.80;99.90;;;;;;5074927;28;20197;-80